WEATHER DATA

YESTERDAY
Time Temp. Dewp. Hum. Wind dir Wind speed Wind gust Bar. 1h Prec. 24h Prec.
00:00 15 10.4 74 90 0.3 0.8 1013.6 0.0000 0.0000
00:11 14.8 10.4 75 90 0.3 0.8 1013.6 0.0000 0.0000
00:21 14.7 10.3 75 90 0.3 0.8 1013.5 0.0000 0.0000
00:31 14.6 10.2 75 90 0.3 0.8 1013.6 0.0000 0.0000
00:41 14.5 10.3 76 90 0.3 0.8 1013.5 0.0000 0.0000
00:51 14.4 10.2 76 90 0.3 0.8 1013.5 0.0000 0.0000
01:01 14.3 10.1 76 90 0.3 0.8 1013.6 0.0000 0.0000
01:11 14.2 10.2 77 90 0.3 0.8 1013.6 0.0000 0.0000
01:22 14.1 10.1 77 90 0.3 0.8 1013.5 0.0000 0.0000
01:32 14 10 77 90 0.3 0.8 1013.5 0.0000 0.0000
01:42 13.9 9.9 77 90 0.3 0.8 1013.5 0.0000 0.0000
01:51 13.8 10 78 90 0.3 0.8 1013.4 0.0000 0.0000
02:02 13.7 9.9 78 90 0.3 0.8 1013.4 0.0000 0.0000
02:12 13.6 9.8 78 90 0.3 0.8 1013.4 0.0000 0.0000
02:22 13.5 9.7 78 90 0.3 0.8 1013.3 0.0000 0.0000
02:32 13.4 9.8 79 90 0.3 0.8 1013.3 0.0000 0.0000
02:43 13.3 9.7 79 90 0.3 0.8 1013.2 0.0000 0.0000
02:52 13.2 9.6 79 90 0.3 0.8 1013.1 0.0000 0.0000
03:02 13.1 9.5 79 90 0.3 0.8 1013.2 0.0000 0.0000
03:13 13 9.4 79 90 0.3 0.8 1013.1 0.0000 0.0000
03:23 12.9 9.4 79 90 0.3 0.8 1013 0.0000 0.0000
03:33 12.8 9.4 80 90 0.3 0.8 1013 0.0000 0.0000
03:43 12.7 9.3 80 90 0.3 0.8 1012.9 0.0000 0.0000
03:53 12.6 9.2 80 90 0.3 0.8 1013.1 0.0000 0.0000
04:03 12.6 9.2 80 90 0.3 0.8 1013 0.0000 0.0000
04:13 12.5 9.3 81 90 0.3 0.8 1013.1 0.0000 0.0000
04:24 12.5 9.3 81 90 0.3 0.8 1013 0.0000 0.0000
04:33 12.4 9.2 81 90 0.3 0.8 1012.9 0.0000 0.0000
04:43 12.4 9.2 81 90 0.3 0.8 1012.8 0.0000 0.0000
04:53 12.3 9.1 81 90 0.3 0.8 1012.9 0.0000 0.0000
05:04 12.3 9.3 82 90 0.3 0.8 1012.9 0.0000 0.0000
05:14 12.2 9.2 82 90 0.3 0.8 1012.9 0.0000 0.0000
05:24 12.1 9.1 82 90 0.3 0.8 1012.8 0.0000 0.0000
05:34 12.1 9.1 82 90 0.3 0.8 1012.8 0.0000 0.0000
05:44 12.1 9.1 82 90 0.3 0.8 1012.8 0.0000 0.0000
05:54 12 9 82 90 0.3 0.8 1012.8 0.0000 0.0000
06:04 12 9 82 90 0.3 0.8 1012.6 0.0000 0.0000
06:15 12 9 82 90 0.3 0.8 1012.8 0.0000 0.0000
06:24 12.1 9.1 82 90 0.3 0.8 1012.8 0.0000 0.0000
06:34 12.3 9.5 83 90 0.3 0.8 1012.8 0.0000 0.0000
06:45 12.5 9.7 83 90 0.3 0.8 1012.9 0.0000 0.0000
06:55 12.7 9.9 83 90 0.3 0.8 1013 0.0000 0.0000
07:05 13.1 10.5 84 90 0.3 0.8 1013 0.0000 0.0000
07:15 13.6 11 84 90 0.3 0.8 1012.9 0.0000 0.0000
07:25 14.2 11.5 84 90 0.3 0.8 1013 0.0000 0.0000
07:35 14.8 12.1 84 90 0.3 0.8 1013.2 0.0000 0.0000
07:45 15.4 12.7 84 90 0.3 0.8 1013.8 0.0000 0.0000
07:55 16.1 13 82 90 0.3 0.8 1013.8 0.0000 0.0000
08:06 16.5 13 80 90 0.3 0.8 1014 0.0000 0.0000
08:15 16.6 13.1 80 90 0.3 0.8 1013.8 0.0000 0.0000
08:25 16.4 12.9 80 90 0.3 0.8 1014 0.0000 0.0000
08:36 16.2 12.7 80 90 0.3 0.8 1013.9 0.0000 0.0000
08:46 16.1 12.8 81 90 0.3 0.8 1013.9 0.0000 0.0000
08:56 16.1 12.8 81 90 0.3 0.8 1013.9 0.0000 0.0000
09:06 16.6 13.5 82 90 0.3 0.8 1013.8 0.0000 0.0000
09:16 17.5 14.6 83 90 0.3 0.8 1013.8 0.0000 0.0000
09:26 18.4 15.1 81 90 0.3 0.8 1013.8 0.0000 0.0000
09:36 19 15.5 80 90 0.3 0.8 1013.8 0.0000 0.0000
09:47 19.6 16.1 80 90 0.3 0.8 1013.8 0.0000 0.0000
09:57 20.4 16.6 79 90 0.3 0.8 1013.9 0.0000 0.0000
10:06 21.2 17 77 90 0.3 0.8 1013.9 0.0000 0.0000
10:16 21.9 17.3 75 90 0.3 0.8 1013.9 0.0000 0.0000
10:27 22.4 17.1 72 90 0.3 0.8 1014 0.0000 0.0000
10:37 23 17.2 70 90 0.3 0.8 1014 0.0000 0.0000
10:57 23.8 16.8 65 90 0.3 0.8 1014 0.0000 0.0000
11:07 24 16.5 63 90 0.3 0.8 1014 0.0000 0.0000
11:17 24.3 16.3 61 90 0.3 0.8 1014 0.0000 0.0000
11:27 24.5 16.2 60 90 0.3 0.8 1013.9 0.0000 0.0000
11:37 24.8 16.2 59 90 0.3 0.8 1013.9 0.0000 0.0000
11:47 25.2 16.1 57 90 0.3 0.8 1013.9 0.0000 0.0000
12:07 25.9 16.2 55 90 0.3 0.8 1013.8 0.0000 0.0000
12:16 26.3 16.3 54 90 0.3 0.8 1013.7 0.0000 0.0000
12:26 26.8 16.7 54 90 0.3 0.8 1013.7 0.0000 0.0000
12:36 27.2 16.5 52 90 0.3 0.8 1013.7 0.0000 0.0000
12:47 27.4 16.7 52 90 0.3 0.8 1013.7 0.0000 0.0000
12:56 27.4 16.4 51 90 0.3 0.8 1013.7 0.0000 0.0000
13:06 27.6 16.2 50 90 0.3 0.8 1013.7 0.0000 0.0000
13:17 27.9 16.2 49 90 0.3 0.8 1013.7 0.0000 0.0000
13:26 28 16 48 90 0.3 0.8 1013.6 0.0000 0.0000
13:46 28.3 15.9 47 90 0.3 0.8 1013.3 0.0000 0.0000
13:57 28.4 16 47 90 0.3 0.8 1013.2 0.0000 0.0000
14:06 28.5 15.8 46 90 0.3 0.8 1013.1 0.0000 0.0000
14:16 28.7 15.6 45 90 0.3 0.8 1013.1 0.0000 0.0000
14:27 28.7 15.6 45 90 0.3 0.8 1013.1 0.0000 0.0000
14:36 28.5 15.1 44 90 0.3 0.8 1013 0.0000 0.0000
14:46 28.5 15.1 44 90 0.3 0.8 1013 0.0000 0.0000
14:57 28.5 15.1 44 90 0.3 0.8 1012.9 0.0000 0.0000
15:07 28.3 14.9 44 90 0.3 0.8 1012.9 0.0000 0.0000
15:16 28.2 14.4 43 90 0.3 0.8 1013 0.0000 0.0000
15:26 28.1 14 42 90 0.3 0.8 1012.8 0.0000 0.0000
15:37 28 13.9 42 90 0.3 0.8 1012.6 0.0000 0.0000
15:46 27.9 13.8 42 90 0.3 0.8 1012.5 0.0000 0.0000
15:56 27.9 13.8 42 90 0.3 0.8 1012.3 0.0000 0.0000
16:07 28 13.9 42 90 0.3 0.8 1012.3 0.0000 0.0000
16:17 28 13.9 42 90 0.3 0.8 1012.1 0.0000 0.0000
16:26 28 13.9 42 90 0.3 0.8 1012.1 0.0000 0.0000
16:37 27.9 13.8 42 90 0.3 0.8 1012.1 0.0000 0.0000
16:47 27.8 13.4 41 90 0.3 0.8 1012 0.0000 0.0000
16:56 27.8 13.7 42 90 0.3 0.8 1012 0.0000 0.0000
17:06 27.8 13.7 42 90 0.3 0.8 1011.9 0.0000 0.0000
17:17 27.7 13.3 41 90 0.3 0.8 1011.9 0.0000 0.0000
17:27 27.6 13.2 41 90 0.3 0.8 1011.8 0.0000 0.0000
17:36 27.6 13.2 41 90 0.3 0.8 1011.8 0.0000 0.0000
17:47 27.4 13 41 90 0.3 0.8 1011.8 0.0000 0.0000
17:57 27.2 12.8 41 90 0.3 0.8 1011.7 0.0000 0.0000
18:07 27.1 13.5 43 90 0.3 0.8 1011.7 0.0000 0.0000
18:16 27 13.4 43 90 0.3 0.8 1011.9 0.0000 0.0000
18:27 26.9 12.9 42 90 0.3 0.8 1011.9 0.0000 0.0000
18:37 26.7 12 40 90 0.3 0.8 1012 0.0000 0.0000
18:47 26.4 11.7 40 90 0.3 0.8 1012.1 0.0000 0.0000
18:57 26.2 11.5 40 90 0.3 0.8 1012.2 0.0000 0.0000
19:07 25.9 10.9 39 90 0.3 0.8 1012.3 0.0000 0.0000
19:27 25.3 10.4 39 90 0.3 0.8 1012.5 0.0000 0.0000
19:38 24.9 10.4 40 90 0.3 0.8 1012.8 0.0000 0.0000
19:47 24.6 10.5 41 90 0.3 0.8 1013.1 0.0000 0.0000
19:57 23.9 10.6 43 90 0.3 0.8 1013.2 0.0000 0.0000
20:08 23.1 10.5 45 90 0.3 0.8 1013.2 0.0000 0.0000
20:18 22.5 10.6 47 90 0.3 0.8 1013.2 0.0000 0.0000
20:28 22 10.5 48 90 0.3 0.8 1013.3 0.0000 0.0000
20:38 21.5 10.7 50 90 0.3 0.8 1013.6 0.0000 0.0000
20:48 21.3 10.8 51 90 0.3 0.8 1013.9 0.0000 0.0000
20:58 21 11.1 53 90 0.3 0.8 1014.2 0.0000 0.0000
21:08 20.6 11 54 90 0.3 0.8 1014.4 0.0000 0.0000
21:18 20.4 11.1 55 90 0.3 0.8 1014.4 0.0000 0.0000
21:29 20.3 11 55 90 0.3 0.8 1014.6 0.0000 0.0000
21:39 20.2 10.9 55 90 0.3 0.8 1014.5 0.0000 0.0000
21:49 20.1 10.8 55 90 0.3 0.8 1014.4 0.0000 0.0000
21:59 20 11 56 90 0.3 0.8 1014.4 0.0000 0.0000
22:09 19.8 11 57 90 0.3 0.8 1014.5 0.0000 0.0000
22:19 19.6 11.1 58 90 0.3 0.8 1014.6 0.0000 0.0000
22:29 19.3 11.1 59 90 0.3 0.8 1014.7 0.0000 0.0000
22:40 19.1 11.9 63 90 0.3 0.8 1014.5 0.0000 0.0000
22:50 18.8 12.1 65 90 0.3 0.8 1014.5 0.0000 0.0000
23:00 18.5 12 66 90 0.3 0.8 1014.4 0.0000 0.0000
23:10 18.2 12 67 90 0.3 0.8 1014.4 0.0000 0.0000
23:20 17.9 11.7 67 90 0.3 0.8 1014.4 0.0000 0.0000
23:30 17.7 11.7 68 90 0.3 0.8 1014.5 0.0000 0.0000
23:40 17.6 12.1 70 90 0.3 0.8 1015 0.0000 0.0000
23:51 17.4 12.1 71 90 0.3 0.8 1015.2 0.0000 0.0000

DAY STATISTIC

2018-04-23
TEMPERATURE
AVERAGE
20.1
HIGH
28.7
14:16
LOW
12.0
05:54
PRESSURE
AVERAGE
1013.3
HIGH
1015.2
23:51
LOW
1011.7
17:57
DEWPOINT
AVERAGE
12.3
HIGH
17.3
10:16
LOW
9.0
05:54
HUMIDITY
AVERAGE
64
HIGH
84
07:05
LOW
39
19:07
WIND SPEED
AVERAGE
0.3
HIGH
0.3
00:00
WIND GUST
AVERAGE
0.8
HIGH
0.8
00:00
WIND DIRECTION
PREVAILING
E
100%
N
0.0
NE
0.0
E
100.0
SE
0.0
S
0.0
SW
0.0
W
0.0
NW
0.0
PRECIPITATION
RAIN HOUR
0.0
RAIN DAY
0.0
TEMPERATURE (°C)
LOW
12.0
HIGH
28.7
AVERAGE
20.1
PRESSURE (hpa)
LOW
1011.7
HIGH
1015.2
AVERAGE
1013.3
DEVICE